createdAt,value
2017-05-13T00:02:23.119Z,89.80
2017-05-13T00:04:51.193Z,89.80
2017-05-13T00:07:18.142Z,90.00
2017-05-13T00:09:45.084Z,90.10
2017-05-13T00:12:12.030Z,89.80
2017-05-13T00:14:38.995Z,89.30
2017-05-13T00:17:05.965Z,89.30
2017-05-13T00:19:32.923Z,89.10
2017-05-13T00:21:59.901Z,89.10
2017-05-13T00:24:26.850Z,89.00
2017-05-13T00:26:53.814Z,89.00
2017-05-13T00:29:20.794Z,88.40
2017-05-13T00:31:47.727Z,88.20
2017-05-13T00:34:14.995Z,88.50
2017-05-13T00:36:42.852Z,88.10
2017-05-13T00:39:09.795Z,88.00
2017-05-13T00:41:36.755Z,88.00
2017-05-13T00:44:03.736Z,88.00
2017-05-13T00:46:30.798Z,88.10
2017-05-13T00:48:57.778Z,88.20
2017-05-13T00:51:24.746Z,88.40
2017-05-13T00:53:53.395Z,88.80
2017-05-13T00:56:20.391Z,88.90
2017-05-13T00:58:47.371Z,89.20
2017-05-13T01:01:14.295Z,89.40
2017-05-13T01:03:41.514Z,89.60
2017-05-13T01:06:09.233Z,89.70
2017-05-13T01:08:36.193Z,89.80
2017-05-13T01:11:03.266Z,89.10
2017-05-13T01:13:30.929Z,88.80
2017-05-13T01:15:57.878Z,88.50
2017-05-13T01:18:26.551Z,88.40
2017-05-13T01:20:53.496Z,88.10
2017-05-13T01:23:21.228Z,88.00
2017-05-13T01:25:48.242Z,87.80
2017-05-13T01:28:15.429Z,87.80
2017-05-13T01:30:42.386Z,87.70
2017-05-13T01:33:09.359Z,87.50
2017-05-13T01:35:36.302Z,88.30
2017-05-13T01:38:03.304Z,87.50
2017-05-13T01:40:30.277Z,87.50
2017-05-13T01:42:57.993Z,87.50
2017-05-13T01:45:24.962Z,87.50
2017-05-13T01:47:52.318Z,87.50
2017-05-13T01:50:19.302Z,87.50
2017-05-13T01:52:46.271Z,89.10
2017-05-13T01:55:13.242Z,89.70
2017-05-13T01:57:40.208Z,89.10
2017-05-13T02:00:07.191Z,88.80
2017-05-13T02:02:34.211Z,88.50
2017-05-13T02:05:01.873Z,88.40
2017-05-13T02:07:29.569Z,88.20
2017-05-13T02:09:56.624Z,88.20
2017-05-13T02:12:23.630Z,88.10
2017-05-13T02:14:51.344Z,87.90
2017-05-13T02:17:18.322Z,89.20
2017-05-13T02:19:45.262Z,89.80
2017-05-13T02:22:12.212Z,89.30
2017-05-13T02:24:39.169Z,88.90
2017-05-13T02:27:06.939Z,88.70
2017-05-13T02:29:34.638Z,88.50
2017-05-13T02:32:02.117Z,88.30
2017-05-13T02:34:29.054Z,88.20
2017-05-13T02:36:56.002Z,88.10
2017-05-13T02:39:22.966Z,89.50
2017-05-13T02:41:49.906Z,90.00
2017-05-13T02:44:16.821Z,90.10
2017-05-13T02:46:44.152Z,90.20
2017-05-13T02:49:11.113Z,90.10
2017-05-13T02:51:38.057Z,90.00
2017-05-13T02:54:05.030Z,89.90
2017-05-13T02:56:31.999Z,90.00
2017-05-13T02:58:59.766Z,89.20
2017-05-13T03:01:27.471Z,90.10
2017-05-13T03:03:54.446Z,90.10
2017-05-13T03:06:21.386Z,90.30
2017-05-13T03:08:48.341Z,90.00
2017-05-13T03:11:15.287Z,90.10
2017-05-13T03:13:42.291Z,90.10
2017-05-13T03:16:09.589Z,90.10
2017-05-13T03:18:36.522Z,90.10
2017-05-13T03:21:03.514Z,90.00
2017-05-13T03:23:30.734Z,90.00
2017-05-13T03:25:57.767Z,90.00
2017-05-13T03:28:24.735Z,90.00
2017-05-13T03:30:52.495Z,89.80
2017-05-13T03:33:19.431Z,89.40
2017-05-13T03:35:46.382Z,89.40
2017-05-13T03:38:13.362Z,89.60
2017-05-13T03:40:40.319Z,89.60
2017-05-13T03:43:07.894Z,89.60
2017-05-13T03:45:35.199Z,89.40
2017-05-13T03:48:02.183Z,89.10
2017-05-13T03:50:29.183Z,89.20
2017-05-13T03:52:57.207Z,89.30
2017-05-13T03:55:24.177Z,89.10
2017-05-13T03:57:51.160Z,89.00
2017-05-13T04:00:18.121Z,88.70
2017-05-13T04:02:46.113Z,88.60
2017-05-13T04:05:13.066Z,88.50
2017-05-13T04:07:40.042Z,88.20
2017-05-13T04:10:07.727Z,88.20
2017-05-13T04:12:34.949Z,88.00
2017-05-13T04:15:02.723Z,87.90
2017-05-13T04:17:30.417Z,87.60
2017-05-13T04:19:57.383Z,87.50
2017-05-13T04:22:24.790Z,87.60
2017-05-13T04:24:52.462Z,87.80
2017-05-13T04:27:19.390Z,87.80
2017-05-13T04:29:47.148Z,87.80
2017-05-13T04:32:14.867Z,87.60
2017-05-13T04:34:41.861Z,87.30
2017-05-13T04:37:09.579Z,87.10
2017-05-13T04:39:36.548Z,86.80
2017-05-13T04:42:03.540Z,86.70
2017-05-13T04:44:30.520Z,86.20
2017-05-13T04:46:57.518Z,86.60
2017-05-13T04:49:24.578Z,86.60
2017-05-13T04:51:52.027Z,86.40
2017-05-13T04:54:19.162Z,87.30
2017-05-13T04:56:46.190Z,86.00
2017-05-13T04:59:14.101Z,83.80
2017-05-13T05:01:41.105Z,82.50
2017-05-13T05:04:08.333Z,81.40
2017-05-13T05:06:35.534Z,81.20
2017-05-13T05:09:02.623Z,80.90
2017-05-13T05:11:29.748Z,80.90
2017-05-13T05:13:56.840Z,80.70
2017-05-13T05:16:24.100Z,79.90
2017-05-13T05:18:51.867Z,79.60
2017-05-13T05:21:19.625Z,78.40
2017-05-13T05:23:46.626Z,76.80
2017-05-13T05:26:14.276Z,74.20
2017-05-13T05:37:38.065Z,59.30
2017-05-13T05:57:29.420Z,70.80
2017-05-13T05:59:56.374Z,72.50
2017-05-13T06:02:23.329Z,73.50
2017-05-13T06:04:50.325Z,73.60
2017-05-13T06:07:18.056Z,73.30
2017-05-13T06:09:45.034Z,73.20
2017-05-13T06:12:12.796Z,73.10
2017-05-13T06:14:40.514Z,74.30
2017-05-13T06:17:07.531Z,71.70
2017-05-13T06:19:35.437Z,68.50
2017-05-13T06:25:21.567Z,61.70
2017-05-13T08:00:18.547Z,35.50
2017-05-13T16:01:28.926Z,45.50
2017-05-13T16:10:04.255Z,46.10
2017-05-13T16:20:47.046Z,45.00
2017-05-13T16:23:14.198Z,44.60
2017-05-13T16:25:43.274Z,45.20
2017-05-13T16:28:15.898Z,45.90
2017-05-13T16:30:44.701Z,46.50
2017-05-13T16:33:21.351Z,47.50
2017-05-13T16:35:51.143Z,48.10
2017-05-13T16:38:30.710Z,47.70
2017-05-13T16:40:58.619Z,47.60
2017-05-13T16:43:27.027Z,47.50
2017-05-13T16:46:06.938Z,47.30
2017-05-13T16:48:40.772Z,46.50
2017-05-13T16:56:20.134Z,47.80
2017-05-13T16:58:51.618Z,47.60
2017-05-13T17:01:19.629Z,46.50
2017-05-13T17:06:43.076Z,46.90
2017-05-13T17:09:10.268Z,47.50
2017-05-13T17:11:37.553Z,47.30
2017-05-13T17:14:04.707Z,47.80
2017-05-13T17:16:32.597Z,47.70
2017-05-13T17:19:01.533Z,48.20
2017-05-13T17:21:28.703Z,48.40
2017-05-13T17:23:56.460Z,48.70
2017-05-13T17:26:23.584Z,48.80
2017-05-13T17:28:50.686Z,48.90
2017-05-13T17:31:17.751Z,48.00
2017-05-13T17:33:44.938Z,47.90
2017-05-13T17:36:12.739Z,48.10
2017-05-13T17:38:39.967Z,48.20
2017-05-13T17:41:07.928Z,47.60
2017-05-13T17:43:35.251Z,47.60
2017-05-13T17:46:02.418Z,48.20
2017-05-13T17:48:29.586Z,48.10
2017-05-13T17:50:56.699Z,48.00
2017-05-13T17:53:23.734Z,48.10
2017-05-13T17:55:50.747Z,48.10
2017-05-13T17:58:18.531Z,48.40
2017-05-13T18:00:45.597Z,48.60
2017-05-13T18:03:13.453Z,48.70
2017-05-13T18:05:40.651Z,48.90
2017-05-13T18:08:08.418Z,49.00
2017-05-13T18:10:35.608Z,49.10
2017-05-13T18:13:03.453Z,49.20
2017-05-13T18:15:31.177Z,49.30
2017-05-13T18:17:58.233Z,49.20
2017-05-13T18:20:26.627Z,49.30
2017-05-13T18:22:54.339Z,49.40
2017-05-13T18:25:21.336Z,49.70
2017-05-13T18:27:49.152Z,50.10
2017-05-13T18:30:17.178Z,50.10
2017-05-13T18:32:44.214Z,50.40
2017-05-13T18:35:11.197Z,50.80
2017-05-13T18:37:38.231Z,54.60
2017-05-13T18:40:05.447Z,53.90
2017-05-13T18:42:32.429Z,54.50
2017-05-13T18:44:59.939Z,54.10
2017-05-13T18:47:26.898Z,54.30
2017-05-13T18:49:54.268Z,54.60
2017-05-13T18:52:21.270Z,54.90
2017-05-13T18:54:48.286Z,55.10
2017-05-13T18:57:15.266Z,55.30
2017-05-13T18:59:43.140Z,56.10
2017-05-13T19:02:10.115Z,55.70
2017-05-13T19:04:37.149Z,55.80
2017-05-13T19:07:04.131Z,56.00
2017-05-13T19:09:31.124Z,60.10
2017-05-13T19:11:58.102Z,60.80
2017-05-13T19:14:25.792Z,59.70
2017-05-13T19:16:53.773Z,59.40
2017-05-13T19:19:20.791Z,59.20
2017-05-13T19:21:47.839Z,59.20
2017-05-13T19:24:15.019Z,59.20
2017-05-13T19:26:42.075Z,59.30
2017-05-13T19:29:09.039Z,59.40
2017-05-13T19:31:36.001Z,59.50
2017-05-13T19:34:03.019Z,59.70
2017-05-13T19:36:30.852Z,59.80
2017-05-13T19:38:57.877Z,59.90
2017-05-13T19:41:24.887Z,60.10
2017-05-13T19:43:52.635Z,60.50
2017-05-13T19:46:19.643Z,60.80
2017-05-13T19:48:46.635Z,61.10
2017-05-13T19:51:13.649Z,61.30
2017-05-13T19:53:40.727Z,61.60
2017-05-13T19:56:07.774Z,61.90
2017-05-13T19:58:34.786Z,62.20
2017-05-13T20:01:02.142Z,62.50
2017-05-13T20:03:29.250Z,62.80
2017-05-13T20:05:56.444Z,66.80
2017-05-13T20:08:23.702Z,68.00
2017-05-13T20:10:51.867Z,66.70
2017-05-13T20:13:18.866Z,66.10
2017-05-13T20:15:46.668Z,66.10
2017-05-13T20:18:13.646Z,68.80
2017-05-13T20:20:40.638Z,69.70
2017-05-13T20:23:07.692Z,70.20
2017-05-13T20:25:49.252Z,70.60
2017-05-13T20:28:16.239Z,71.10
2017-05-13T20:30:43.273Z,71.40
2017-05-13T20:33:10.388Z,71.60
2017-05-13T20:35:37.381Z,71.70
2017-05-13T20:38:04.356Z,72.00
2017-05-13T20:40:31.330Z,72.10
2017-05-13T20:42:59.018Z,72.60
2017-05-13T20:45:26.003Z,72.10
2017-05-13T20:47:52.964Z,72.10
2017-05-13T20:50:19.936Z,72.10
2017-05-13T20:52:47.619Z,72.20
2017-05-13T20:55:14.591Z,71.20
2017-05-13T20:57:41.537Z,72.40
2017-05-13T21:00:08.710Z,72.50
2017-05-13T21:02:35.664Z,72.80
2017-05-13T21:05:02.569Z,73.00
2017-05-13T21:07:29.548Z,73.10
2017-05-13T21:09:56.550Z,73.00
2017-05-13T21:12:23.490Z,73.10
2017-05-13T21:14:51.186Z,73.20
2017-05-13T21:17:18.127Z,73.30
2017-05-13T21:19:45.059Z,73.50
2017-05-13T21:22:12.035Z,73.60
2017-05-13T21:24:39.030Z,73.70
2017-05-13T21:27:06.006Z,73.70
2017-05-13T21:29:33.030Z,73.60
2017-05-13T21:31:59.985Z,73.80
2017-05-13T21:34:26.965Z,73.90
2017-05-13T21:37:00.789Z,74.30
2017-05-13T21:39:28.490Z,74.20
2017-05-13T21:41:55.435Z,73.30
2017-05-13T21:44:22.803Z,72.80
2017-05-13T21:46:49.718Z,72.40
2017-05-13T21:49:16.662Z,72.10
2017-05-13T21:51:43.608Z,72.00
2017-05-13T21:54:10.777Z,71.90
2017-05-13T21:56:37.718Z,71.70
2017-05-13T21:59:04.677Z,71.70
2017-05-13T22:01:31.619Z,71.60
2017-05-13T22:03:58.535Z,71.50
2017-05-13T22:06:25.511Z,71.50
2017-05-13T22:08:52.535Z,73.80
2017-05-13T22:11:19.470Z,73.10
2017-05-13T22:13:46.390Z,72.70
2017-05-13T22:16:14.084Z,72.30
2017-05-13T22:18:41.043Z,72.20
2017-05-13T22:21:08.021Z,72.10
2017-05-13T22:23:34.935Z,72.20
2017-05-13T22:26:01.896Z,74.30
2017-05-13T22:28:29.066Z,73.60
2017-05-13T22:30:56.737Z,73.20
2017-05-13T22:33:24.406Z,73.00
2017-05-13T22:35:51.375Z,72.90
2017-05-13T22:38:18.317Z,72.90
2017-05-13T22:40:45.251Z,72.90
2017-05-13T22:43:12.195Z,72.90
2017-05-13T22:45:39.133Z,72.90
2017-05-13T22:48:06.041Z,72.90
2017-05-13T22:50:32.984Z,72.90
2017-05-13T22:52:59.907Z,72.90
2017-05-13T22:55:26.825Z,72.90
2017-05-13T22:57:54.047Z,72.90
2017-05-13T23:00:21.709Z,72.90
2017-05-13T23:02:49.362Z,72.90
2017-05-13T23:05:17.017Z,73.00
2017-05-13T23:07:44.665Z,73.80
2017-05-13T23:10:11.784Z,73.10
2017-05-13T23:12:38.735Z,73.10
2017-05-13T23:15:05.666Z,73.20
2017-05-13T23:17:32.594Z,73.20
2017-05-13T23:19:59.535Z,73.30
2017-05-13T23:22:26.441Z,73.40
2017-05-13T23:24:53.390Z,73.50
2017-05-13T23:27:21.461Z,73.70
2017-05-13T23:29:49.144Z,73.90
2017-05-13T23:32:16.048Z,74.00
2017-05-13T23:34:43.022Z,74.00
2017-05-13T23:37:10.705Z,74.00
2017-05-13T23:39:37.635Z,74.00
2017-05-13T23:42:04.573Z,74.20
2017-05-13T23:44:32.259Z,74.20
2017-05-13T23:46:59.191Z,74.30
2017-05-13T23:49:26.121Z,77.20
2017-05-13T23:51:53.766Z,78.30
2017-05-13T23:54:21.454Z,77.80
2017-05-13T23:56:48.396Z,76.80
2017-05-13T23:59:15.318Z,77.20
